sensor_id;sensor_type;location;lat;lon;timestamp;P1;durP1;ratioP1;P2;durP2;ratioP2
35981;SDS011;22058;0.000;0.000;2023-07-09T00:00:23;3.55;;;3.25;;
35981;SDS011;22058;0.000;0.000;2023-07-09T00:02:49;2.88;;;2.67;;
35981;SDS011;22058;0.000;0.000;2023-07-09T00:05:16;2.75;;;2.55;;
35981;SDS011;22058;0.000;0.000;2023-07-09T00:07:43;3.08;;;2.88;;
35981;SDS011;22058;0.000;0.000;2023-07-09T00:10:16;2.72;;;2.63;;
35981;SDS011;22058;0.000;0.000;2023-07-09T00:12:44;3.47;;;3.05;;
35981;SDS011;22058;0.000;0.000;2023-07-09T00:15:11;2.97;;;2.80;;
35981;SDS011;22058;0.000;0.000;2023-07-09T00:17:37;3.00;;;2.80;;
35981;SDS011;22058;0.000;0.000;2023-07-09T00:20:05;3.05;;;2.85;;
35981;SDS011;22058;0.000;0.000;2023-07-09T00:22:42;2.28;;;2.17;;
35981;SDS011;22058;0.000;0.000;2023-07-09T00:25:13;2.55;;;2.45;;
35981;SDS011;22058;0.000;0.000;2023-07-09T00:27:41;2.53;;;2.42;;
35981;SDS011;22058;0.000;0.000;2023-07-09T00:30:18;3.20;;;3.00;;
35981;SDS011;22058;0.000;0.000;2023-07-09T00:32:44;2.00;;;1.80;;
35981;SDS011;22058;0.000;0.000;2023-07-09T00:35:11;2.70;;;2.50;;
35981;SDS011;22058;0.000;0.000;2023-07-09T00:37:40;2.30;;;2.20;;
35981;SDS011;22058;0.000;0.000;2023-07-09T00:40:18;2.55;;;2.45;;
35981;SDS011;22058;0.000;0.000;2023-07-09T00:42:49;3.03;;;2.83;;
35981;SDS011;22058;0.000;0.000;2023-07-09T00:45:22;2.67;;;2.47;;
35981;SDS011;22058;0.000;0.000;2023-07-09T00:52:57;3.00;;;2.80;;
35981;SDS011;22058;0.000;0.000;2023-07-09T00:55:25;2.95;;;2.75;;
35981;SDS011;22058;0.000;0.000;2023-07-09T00:57:56;2.30;;;2.20;;
35981;SDS011;22058;0.000;0.000;2023-07-09T01:00:27;2.40;;;2.30;;
35981;SDS011;22058;0.000;0.000;2023-07-09T01:02:56;2.33;;;2.22;;
35981;SDS011;22058;0.000;0.000;2023-07-09T01:05:23;3.03;;;2.70;;
35981;SDS011;22058;0.000;0.000;2023-07-09T01:07:50;2.67;;;2.58;;
35981;SDS011;22058;0.000;0.000;2023-07-09T01:10:18;2.70;;;2.50;;
35981;SDS011;22058;0.000;0.000;2023-07-09T01:12:45;2.78;;;2.65;;
35981;SDS011;22058;0.000;0.000;2023-07-09T01:15:12;2.83;;;2.63;;
35981;SDS011;22058;0.000;0.000;2023-07-09T01:17:40;2.30;;;2.20;;
35981;SDS011;22058;0.000;0.000;2023-07-09T01:20:14;2.88;;;2.67;;
35981;SDS011;22058;0.000;0.000;2023-07-09T01:22:41;2.50;;;2.40;;
35981;SDS011;22058;0.000;0.000;2023-07-09T01:25:07;2.00;;;1.90;;
35981;SDS011;22058;0.000;0.000;2023-07-09T01:27:42;3.22;;;3.03;;
35981;SDS011;22058;0.000;0.000;2023-07-09T01:30:16;2.50;;;2.30;;
35981;SDS011;22058;0.000;0.000;2023-07-09T01:32:47;2.65;;;2.55;;
35981;SDS011;22058;0.000;0.000;2023-07-09T01:35:15;3.03;;;2.83;;
35981;SDS011;22058;0.000;0.000;2023-07-09T01:37:42;3.28;;;3.05;;
35981;SDS011;22058;0.000;0.000;2023-07-09T01:40:09;3.28;;;3.08;;
35981;SDS011;22058;0.000;0.000;2023-07-09T01:42:37;2.92;;;2.72;;
35981;SDS011;22058;0.000;0.000;2023-07-09T01:45:03;3.55;;;3.35;;
35981;SDS011;22058;0.000;0.000;2023-07-09T01:47:30;3.60;;;3.40;;
35981;SDS011;22058;0.000;0.000;2023-07-09T01:49:56;2.97;;;2.78;;
35981;SDS011;22058;0.000;0.000;2023-07-09T01:52:23;3.15;;;2.95;;
35981;SDS011;22058;0.000;0.000;2023-07-09T01:54:52;3.95;;;3.65;;
35981;SDS011;22058;0.000;0.000;2023-07-09T01:57:22;3.50;;;3.30;;
35981;SDS011;22058;0.000;0.000;2023-07-09T01:59:52;2.80;;;2.60;;
35981;SDS011;22058;0.000;0.000;2023-07-09T02:04:46;3.85;;;3.55;;
35981;SDS011;22058;0.000;0.000;2023-07-09T02:07:13;3.88;;;3.58;;
35981;SDS011;22058;0.000;0.000;2023-07-09T02:09:39;3.30;;;3.10;;
35981;SDS011;22058;0.000;0.000;2023-07-09T02:12:05;3.55;;;3.30;;
35981;SDS011;22058;0.000;0.000;2023-07-09T02:14:32;2.72;;;2.63;;
35981;SDS011;22058;0.000;0.000;2023-07-09T02:16:58;3.35;;;3.15;;
35981;SDS011;22058;0.000;0.000;2023-07-09T02:19:24;2.70;;;2.50;;
35981;SDS011;22058;0.000;0.000;2023-07-09T02:21:50;2.83;;;2.63;;
35981;SDS011;22058;0.000;0.000;2023-07-09T02:24:16;2.50;;;2.40;;
35981;SDS011;22058;0.000;0.000;2023-07-09T02:26:42;2.45;;;2.25;;
35981;SDS011;22058;0.000;0.000;2023-07-09T02:29:10;2.72;;;2.53;;
35981;SDS011;22058;0.000;0.000;2023-07-09T02:31:36;3.17;;;2.97;;
35981;SDS011;22058;0.000;0.000;2023-07-09T02:34:02;2.72;;;2.58;;
35981;SDS011;22058;0.000;0.000;2023-07-09T02:36:28;3.30;;;3.10;;
35981;SDS011;22058;0.000;0.000;2023-07-09T02:38:54;3.22;;;2.97;;
35981;SDS011;22058;0.000;0.000;2023-07-09T02:41:21;3.15;;;2.95;;
35981;SDS011;22058;0.000;0.000;2023-07-09T02:43:47;2.97;;;2.78;;
35981;SDS011;22058;0.000;0.000;2023-07-09T02:46:13;2.30;;;2.20;;
35981;SDS011;22058;0.000;0.000;2023-07-09T02:48:39;2.70;;;2.50;;
35981;SDS011;22058;0.000;0.000;2023-07-09T02:51:05;3.00;;;2.80;;
35981;SDS011;22058;0.000;0.000;2023-07-09T02:53:31;3.53;;;3.33;;
35981;SDS011;22058;0.000;0.000;2023-07-09T02:55:57;3.15;;;2.95;;
35981;SDS011;22058;0.000;0.000;2023-07-09T02:58:23;2.47;;;2.35;;
35981;SDS011;22058;0.000;0.000;2023-07-09T03:00:49;3.72;;;3.53;;
35981;SDS011;22058;0.000;0.000;2023-07-09T03:03:19;2.60;;;2.40;;
35981;SDS011;22058;0.000;0.000;2023-07-09T03:05:48;3.50;;;3.20;;
35981;SDS011;22058;0.000;0.000;2023-07-09T03:08:14;2.67;;;2.58;;
35981;SDS011;22058;0.000;0.000;2023-07-09T03:10:40;3.28;;;3.08;;
35981;SDS011;22058;0.000;0.000;2023-07-09T03:13:06;2.78;;;2.58;;
35981;SDS011;22058;0.000;0.000;2023-07-09T03:15:32;2.92;;;2.72;;
35981;SDS011;22058;0.000;0.000;2023-07-09T03:17:59;2.53;;;2.42;;
35981;SDS011;22058;0.000;0.000;2023-07-09T03:20:25;2.60;;;2.50;;
35981;SDS011;22058;0.000;0.000;2023-07-09T03:22:51;2.58;;;2.47;;
35981;SDS011;22058;0.000;0.000;2023-07-09T03:25:17;2.33;;;2.22;;
35981;SDS011;22058;0.000;0.000;2023-07-09T03:27:43;2.20;;;2.10;;
35981;SDS011;22058;0.000;0.000;2023-07-09T03:30:09;2.05;;;1.95;;
35981;SDS011;22058;0.000;0.000;2023-07-09T03:32:35;2.60;;;2.50;;
35981;SDS011;22058;0.000;0.000;2023-07-09T03:35:01;2.53;;;2.33;;
35981;SDS011;22058;0.000;0.000;2023-07-09T03:37:28;2.85;;;2.65;;
35981;SDS011;22058;0.000;0.000;2023-07-09T03:39:54;2.58;;;2.40;;
35981;SDS011;22058;0.000;0.000;2023-07-09T03:42:20;2.97;;;2.78;;
35981;SDS011;22058;0.000;0.000;2023-07-09T03:44:46;2.47;;;2.38;;
35981;SDS011;22058;0.000;0.000;2023-07-09T03:47:12;2.60;;;2.40;;
35981;SDS011;22058;0.000;0.000;2023-07-09T03:49:38;2.50;;;2.40;;
35981;SDS011;22058;0.000;0.000;2023-07-09T03:52:07;2.13;;;2.03;;
35981;SDS011;22058;0.000;0.000;2023-07-09T03:54:33;2.80;;;2.60;;
35981;SDS011;22058;0.000;0.000;2023-07-09T03:56:59;3.20;;;3.00;;
35981;SDS011;22058;0.000;0.000;2023-07-09T03:59:25;2.50;;;2.40;;
35981;SDS011;22058;0.000;0.000;2023-07-09T04:01:51;3.17;;;2.97;;
35981;SDS011;22058;0.000;0.000;2023-07-09T04:04:18;2.58;;;2.47;;
35981;SDS011;22058;0.000;0.000;2023-07-09T04:06:45;3.10;;;2.90;;
35981;SDS011;22058;0.000;0.000;2023-07-09T04:09:12;2.20;;;2.00;;
35981;SDS011;22058;0.000;0.000;2023-07-09T04:11:38;3.10;;;2.90;;
35981;SDS011;22058;0.000;0.000;2023-07-09T04:14:04;2.78;;;2.58;;
35981;SDS011;22058;0.000;0.000;2023-07-09T04:16:32;2.03;;;1.92;;
35981;SDS011;22058;0.000;0.000;2023-07-09T04:18:58;2.28;;;2.17;;
35981;SDS011;22058;0.000;0.000;2023-07-09T04:21:24;1.88;;;1.77;;
35981;SDS011;22058;0.000;0.000;2023-07-09T04:23:50;1.85;;;1.75;;
35981;SDS011;22058;0.000;0.000;2023-07-09T04:26:16;2.55;;;2.45;;
35981;SDS011;22058;0.000;0.000;2023-07-09T04:28:42;2.50;;;2.40;;
35981;SDS011;22058;0.000;0.000;2023-07-09T04:31:08;2.58;;;2.45;;
35981;SDS011;22058;0.000;0.000;2023-07-09T04:33:35;2.70;;;2.55;;
35981;SDS011;22058;0.000;0.000;2023-07-09T04:36:01;3.63;;;2.28;;
35981;SDS011;22058;0.000;0.000;2023-07-09T04:38:27;3.00;;;2.80;;
35981;SDS011;22058;0.000;0.000;2023-07-09T04:40:54;3.00;;;2.80;;
35981;SDS011;22058;0.000;0.000;2023-07-09T04:43:20;2.13;;;1.95;;
35981;SDS011;22058;0.000;0.000;2023-07-09T04:45:47;2.30;;;2.20;;
35981;SDS011;22058;0.000;0.000;2023-07-09T04:48:13;2.60;;;2.40;;
35981;SDS011;22058;0.000;0.000;2023-07-09T04:50:39;2.63;;;2.53;;
35981;SDS011;22058;0.000;0.000;2023-07-09T04:53:05;2.80;;;2.60;;
35981;SDS011;22058;0.000;0.000;2023-07-09T04:55:31;3.10;;;2.90;;
35981;SDS011;22058;0.000;0.000;2023-07-09T04:57:58;2.15;;;2.05;;
35981;SDS011;22058;0.000;0.000;2023-07-09T05:00:24;2.58;;;2.38;;
35981;SDS011;22058;0.000;0.000;2023-07-09T05:02:50;2.45;;;2.35;;
35981;SDS011;22058;0.000;0.000;2023-07-09T05:05:16;3.08;;;2.88;;
35981;SDS011;22058;0.000;0.000;2023-07-09T05:07:42;2.33;;;2.15;;
35981;SDS011;22058;0.000;0.000;2023-07-09T05:10:09;2.65;;;2.45;;
35981;SDS011;22058;0.000;0.000;2023-07-09T05:12:35;2.72;;;2.58;;
35981;SDS011;22058;0.000;0.000;2023-07-09T05:15:01;2.20;;;2.10;;
35981;SDS011;22058;0.000;0.000;2023-07-09T05:17:27;2.28;;;2.17;;
35981;SDS011;22058;0.000;0.000;2023-07-09T05:19:53;2.40;;;2.30;;
35981;SDS011;22058;0.000;0.000;2023-07-09T05:22:19;2.10;;;2.00;;
35981;SDS011;22058;0.000;0.000;2023-07-09T05:24:45;1.92;;;1.83;;
35981;SDS011;22058;0.000;0.000;2023-07-09T05:27:12;2.00;;;1.90;;
35981;SDS011;22058;0.000;0.000;2023-07-09T05:29:38;2.05;;;1.95;;
35981;SDS011;22058;0.000;0.000;2023-07-09T05:32:04;1.83;;;1.73;;
35981;SDS011;22058;0.000;0.000;2023-07-09T05:34:30;1.80;;;1.70;;
35981;SDS011;22058;0.000;0.000;2023-07-09T05:36:56;2.30;;;2.20;;
35981;SDS011;22058;0.000;0.000;2023-07-09T05:39:22;2.13;;;2.03;;
35981;SDS011;22058;0.000;0.000;2023-07-09T05:41:48;2.22;;;2.13;;
35981;SDS011;22058;0.000;0.000;2023-07-09T05:44:14;1.80;;;1.70;;
35981;SDS011;22058;0.000;0.000;2023-07-09T05:46:41;2.15;;;2.05;;
35981;SDS011;22058;0.000;0.000;2023-07-09T05:49:07;1.73;;;1.63;;
35981;SDS011;22058;0.000;0.000;2023-07-09T05:51:33;2.13;;;2.03;;
35981;SDS011;22058;0.000;0.000;2023-07-09T05:53:59;2.05;;;1.95;;
35981;SDS011;22058;0.000;0.000;2023-07-09T05:56:25;1.90;;;1.80;;
35981;SDS011;22058;0.000;0.000;2023-07-09T05:58:51;1.90;;;1.80;;
35981;SDS011;22058;0.000;0.000;2023-07-09T06:01:18;2.10;;;2.00;;
35981;SDS011;22058;0.000;0.000;2023-07-09T06:03:45;1.90;;;1.80;;
35981;SDS011;22058;0.000;0.000;2023-07-09T06:06:11;1.75;;;1.65;;
35981;SDS011;22058;0.000;0.000;2023-07-09T06:08:38;1.90;;;1.80;;
35981;SDS011;22058;0.000;0.000;2023-07-09T06:11:04;2.00;;;1.90;;
35981;SDS011;22058;0.000;0.000;2023-07-09T06:13:31;2.65;;;2.45;;
35981;SDS011;22058;0.000;0.000;2023-07-09T06:15:58;2.25;;;2.15;;
35981;SDS011;22058;0.000;0.000;2023-07-09T06:18:24;1.92;;;1.83;;
35981;SDS011;22058;0.000;0.000;2023-07-09T06:20:55;1.92;;;1.83;;
35981;SDS011;22058;0.000;0.000;2023-07-09T06:23:21;1.80;;;1.70;;
35981;SDS011;22058;0.000;0.000;2023-07-09T06:25:47;1.80;;;1.70;;
35981;SDS011;22058;0.000;0.000;2023-07-09T06:28:14;1.77;;;1.67;;
35981;SDS011;22058;0.000;0.000;2023-07-09T06:30:41;2.33;;;2.22;;
35981;SDS011;22058;0.000;0.000;2023-07-09T06:33:07;1.80;;;1.70;;
35981;SDS011;22058;0.000;0.000;2023-07-09T06:35:33;2.38;;;2.17;;
35981;SDS011;22058;0.000;0.000;2023-07-09T06:37:59;2.40;;;2.20;;
35981;SDS011;22058;0.000;0.000;2023-07-09T06:40:25;2.28;;;2.17;;
35981;SDS011;22058;0.000;0.000;2023-07-09T06:42:51;2.20;;;2.05;;
35981;SDS011;22058;0.000;0.000;2023-07-09T06:45:17;1.92;;;1.83;;
35981;SDS011;22058;0.000;0.000;2023-07-09T06:47:43;2.00;;;1.90;;
35981;SDS011;22058;0.000;0.000;2023-07-09T06:50:11;1.73;;;1.63;;
35981;SDS011;22058;0.000;0.000;2023-07-09T06:52:37;2.00;;;1.90;;
35981;SDS011;22058;0.000;0.000;2023-07-09T06:55:03;1.92;;;1.83;;
35981;SDS011;22058;0.000;0.000;2023-07-09T06:57:29;2.03;;;1.92;;
35981;SDS011;22058;0.000;0.000;2023-07-09T06:59:56;1.80;;;1.70;;
35981;SDS011;22058;0.000;0.000;2023-07-09T07:02:22;2.55;;;2.38;;
35981;SDS011;22058;0.000;0.000;2023-07-09T07:04:48;2.30;;;2.20;;
35981;SDS011;22058;0.000;0.000;2023-07-09T07:07:14;2.47;;;2.20;;
35981;SDS011;22058;0.000;0.000;2023-07-09T07:09:40;1.63;;;1.52;;
35981;SDS011;22058;0.000;0.000;2023-07-09T07:12:06;2.25;;;2.05;;
35981;SDS011;22058;0.000;0.000;2023-07-09T07:14:32;2.38;;;2.28;;
35981;SDS011;22058;0.000;0.000;2023-07-09T07:16:59;2.05;;;1.95;;
35981;SDS011;22058;0.000;0.000;2023-07-09T07:19:26;2.25;;;2.15;;
35981;SDS011;22058;0.000;0.000;2023-07-09T07:21:52;2.00;;;1.90;;
35981;SDS011;22058;0.000;0.000;2023-07-09T07:24:18;2.50;;;2.30;;
35981;SDS011;22058;0.000;0.000;2023-07-09T07:26:44;1.70;;;1.60;;
35981;SDS011;22058;0.000;0.000;2023-07-09T07:29:10;2.08;;;1.98;;
35981;SDS011;22058;0.000;0.000;2023-07-09T07:31:37;2.22;;;2.13;;
35981;SDS011;22058;0.000;0.000;2023-07-09T07:34:03;2.30;;;2.20;;
35981;SDS011;22058;0.000;0.000;2023-07-09T07:36:29;1.88;;;1.77;;
35981;SDS011;22058;0.000;0.000;2023-07-09T07:38:55;3.20;;;3.00;;
35981;SDS011;22058;0.000;0.000;2023-07-09T07:41:21;2.90;;;2.70;;
35981;SDS011;22058;0.000;0.000;2023-07-09T07:43:47;4.80;;;2.72;;
35981;SDS011;22058;0.000;0.000;2023-07-09T07:46:13;3.08;;;2.88;;
35981;SDS011;22058;0.000;0.000;2023-07-09T07:48:39;2.60;;;2.40;;
35981;SDS011;22058;0.000;0.000;2023-07-09T07:51:06;2.92;;;2.72;;
35981;SDS011;22058;0.000;0.000;2023-07-09T07:53:32;3.00;;;2.83;;
35981;SDS011;22058;0.000;0.000;2023-07-09T07:55:58;3.28;;;3.08;;
35981;SDS011;22058;0.000;0.000;2023-07-09T07:58:27;3.20;;;3.00;;
35981;SDS011;22058;0.000;0.000;2023-07-09T08:00:54;3.97;;;3.67;;
35981;SDS011;22058;0.000;0.000;2023-07-09T08:03:22;3.20;;;3.00;;
35981;SDS011;22058;0.000;0.000;2023-07-09T08:05:49;3.05;;;2.85;;
35981;SDS011;22058;0.000;0.000;2023-07-09T08:08:15;3.25;;;3.05;;
35981;SDS011;22058;0.000;0.000;2023-07-09T08:10:42;3.47;;;3.28;;
35981;SDS011;22058;0.000;0.000;2023-07-09T08:13:08;3.78;;;3.58;;
35981;SDS011;22058;0.000;0.000;2023-07-09T08:15:34;3.13;;;2.97;;
35981;SDS011;22058;0.000;0.000;2023-07-09T08:18:01;3.30;;;3.10;;
35981;SDS011;22058;0.000;0.000;2023-07-09T08:20:27;3.30;;;3.10;;
35981;SDS011;22058;0.000;0.000;2023-07-09T08:22:53;3.17;;;2.97;;
35981;SDS011;22058;0.000;0.000;2023-07-09T08:25:19;3.20;;;3.00;;
35981;SDS011;22058;0.000;0.000;2023-07-09T08:27:45;2.95;;;2.75;;
35981;SDS011;22058;0.000;0.000;2023-07-09T08:30:11;2.92;;;2.75;;
35981;SDS011;22058;0.000;0.000;2023-07-09T08:32:37;2.50;;;2.30;;
35981;SDS011;22058;0.000;0.000;2023-07-09T08:35:04;3.15;;;2.95;;
35981;SDS011;22058;0.000;0.000;2023-07-09T08:37:30;3.30;;;3.10;;
35981;SDS011;22058;0.000;0.000;2023-07-09T08:39:56;3.58;;;3.38;;
35981;SDS011;22058;0.000;0.000;2023-07-09T08:42:28;4.07;;;3.88;;
35981;SDS011;22058;0.000;0.000;2023-07-09T08:47:43;3.22;;;3.03;;
35981;SDS011;22058;0.000;0.000;2023-07-09T08:50:17;3.53;;;3.33;;
35981;SDS011;22058;0.000;0.000;2023-07-09T08:52:47;3.30;;;3.10;;
35981;SDS011;22058;0.000;0.000;2023-07-09T08:55:20;3.50;;;3.30;;
35981;SDS011;22058;0.000;0.000;2023-07-09T08:57:48;3.63;;;3.42;;
35981;SDS011;22058;0.000;0.000;2023-07-09T09:00:22;4.50;;;3.88;;
35981;SDS011;22058;0.000;0.000;2023-07-09T09:02:59;4.00;;;3.70;;
35981;SDS011;22058;0.000;0.000;2023-07-09T09:05:26;3.80;;;3.60;;
35981;SDS011;22058;0.000;0.000;2023-07-09T09:10:53;3.60;;;3.40;;
35981;SDS011;22058;0.000;0.000;2023-07-09T09:13:23;3.42;;;3.22;;
35981;SDS011;22058;0.000;0.000;2023-07-09T09:15:49;3.42;;;3.22;;
35981;SDS011;22058;0.000;0.000;2023-07-09T09:18:19;3.42;;;3.22;;
35981;SDS011;22058;0.000;0.000;2023-07-09T09:21:01;3.83;;;3.60;;
35981;SDS011;22058;0.000;0.000;2023-07-09T09:23:38;3.10;;;2.90;;
35981;SDS011;22058;0.000;0.000;2023-07-09T09:26:07;3.47;;;3.28;;
35981;SDS011;22058;0.000;0.000;2023-07-09T09:28:35;3.25;;;3.05;;
35981;SDS011;22058;0.000;0.000;2023-07-09T09:31:01;3.35;;;3.15;;
35981;SDS011;22058;0.000;0.000;2023-07-09T09:33:35;3.60;;;3.40;;
35981;SDS011;22058;0.000;0.000;2023-07-09T09:36:03;2.83;;;2.65;;
35981;SDS011;22058;0.000;0.000;2023-07-09T09:38:31;3.50;;;3.30;;
35981;SDS011;22058;0.000;0.000;2023-07-09T09:41:01;3.90;;;3.67;;
35981;SDS011;22058;0.000;0.000;2023-07-09T09:43:32;3.78;;;3.58;;
35981;SDS011;22058;0.000;0.000;2023-07-09T09:45:58;3.45;;;3.25;;
35981;SDS011;22058;0.000;0.000;2023-07-09T09:48:29;3.33;;;3.13;;
35981;SDS011;22058;0.000;0.000;2023-07-09T09:50:55;3.85;;;3.65;;
35981;SDS011;22058;0.000;0.000;2023-07-09T09:53:26;3.17;;;2.97;;
35981;SDS011;22058;0.000;0.000;2023-07-09T09:55:53;3.42;;;3.22;;
35981;SDS011;22058;0.000;0.000;2023-07-09T09:58:19;3.50;;;3.30;;
35981;SDS011;22058;0.000;0.000;2023-07-09T10:00:52;4.05;;;3.85;;
35981;SDS011;22058;0.000;0.000;2023-07-09T10:03:18;4.18;;;3.97;;
35981;SDS011;22058;0.000;0.000;2023-07-09T10:05:50;3.55;;;3.35;;
35981;SDS011;22058;0.000;0.000;2023-07-09T10:11:07;3.80;;;3.60;;
35981;SDS011;22058;0.000;0.000;2023-07-09T10:13:35;3.78;;;3.58;;
35981;SDS011;22058;0.000;0.000;2023-07-09T10:16:05;3.63;;;3.42;;
35981;SDS011;22058;0.000;0.000;2023-07-09T10:21:13;3.42;;;3.22;;
35981;SDS011;22058;0.000;0.000;2023-07-09T10:26:30;3.95;;;3.72;;
35981;SDS011;22058;0.000;0.000;2023-07-09T10:39:18;4.40;;;4.10;;
35981;SDS011;22058;0.000;0.000;2023-07-09T10:41:45;4.20;;;3.97;;
35981;SDS011;22058;0.000;0.000;2023-07-09T10:44:17;4.38;;;4.18;;
35981;SDS011;22058;0.000;0.000;2023-07-09T10:46:45;4.78;;;4.47;;
35981;SDS011;22058;0.000;0.000;2023-07-09T10:49:13;4.63;;;4.32;;
35981;SDS011;22058;0.000;0.000;2023-07-09T10:51:44;3.95;;;3.75;;
35981;SDS011;22058;0.000;0.000;2023-07-09T10:56:51;4.32;;;4.03;;
35981;SDS011;22058;0.000;0.000;2023-07-09T10:59:27;4.72;;;4.43;;
35981;SDS011;22058;0.000;0.000;2023-07-09T11:02:18;4.68;;;4.40;;
35981;SDS011;22058;0.000;0.000;2023-07-09T11:04:46;4.78;;;4.47;;
35981;SDS011;22058;0.000;0.000;2023-07-09T11:07:14;4.15;;;3.95;;
35981;SDS011;22058;0.000;0.000;2023-07-09T11:09:42;4.32;;;4.13;;
35981;SDS011;22058;0.000;0.000;2023-07-09T11:12:15;4.03;;;3.83;;
35981;SDS011;22058;0.000;0.000;2023-07-09T11:14:53;4.13;;;3.90;;
35981;SDS011;22058;0.000;0.000;2023-07-09T11:17:21;4.05;;;3.85;;
35981;SDS011;22058;0.000;0.000;2023-07-09T11:19:52;3.95;;;3.75;;
35981;SDS011;22058;0.000;0.000;2023-07-09T11:24:49;4.78;;;3.67;;
35981;SDS011;22058;0.000;0.000;2023-07-09T11:27:17;4.35;;;4.15;;
35981;SDS011;22058;0.000;0.000;2023-07-09T11:29:47;3.65;;;3.45;;
35981;SDS011;22058;0.000;0.000;2023-07-09T11:32:21;4.03;;;3.80;;
35981;SDS011;22058;0.000;0.000;2023-07-09T11:34:48;4.30;;;4.00;;
35981;SDS011;22058;0.000;0.000;2023-07-09T11:37:15;4.10;;;3.90;;
35981;SDS011;22058;0.000;0.000;2023-07-09T11:39:42;4.32;;;4.05;;
35981;SDS011;22058;0.000;0.000;2023-07-09T11:44:51;4.88;;;4.57;;
35981;SDS011;22058;0.000;0.000;2023-07-09T11:47:21;4.53;;;4.32;;
35981;SDS011;22058;0.000;0.000;2023-07-09T11:50:00;3.83;;;3.63;;
35981;SDS011;22058;0.000;0.000;2023-07-09T11:54:53;4.72;;;4.43;;
35981;SDS011;22058;0.000;0.000;2023-07-09T11:57:19;4.10;;;3.90;;
35981;SDS011;22058;0.000;0.000;2023-07-09T11:59:45;4.88;;;4.47;;
35981;SDS011;22058;0.000;0.000;2023-07-09T12:02:20;4.57;;;4.28;;
35981;SDS011;22058;0.000;0.000;2023-07-09T12:04:48;4.57;;;4.28;;
35981;SDS011;22058;0.000;0.000;2023-07-09T12:07:14;4.60;;;4.30;;
35981;SDS011;22058;0.000;0.000;2023-07-09T12:09:43;5.00;;;4.68;;
35981;SDS011;22058;0.000;0.000;2023-07-09T12:12:18;4.95;;;4.65;;
35981;SDS011;22058;0.000;0.000;2023-07-09T12:14:45;4.55;;;4.25;;
35981;SDS011;22058;0.000;0.000;2023-07-09T12:17:11;5.03;;;4.72;;
35981;SDS011;22058;0.000;0.000;2023-07-09T12:19:37;4.80;;;4.50;;
35981;SDS011;22058;0.000;0.000;2023-07-09T12:22:06;4.50;;;4.20;;
35981;SDS011;22058;0.000;0.000;2023-07-09T12:24:36;4.75;;;4.40;;
35981;SDS011;22058;0.000;0.000;2023-07-09T12:27:14;4.72;;;4.43;;
35981;SDS011;22058;0.000;0.000;2023-07-09T12:29:41;4.13;;;3.83;;
35981;SDS011;22058;0.000;0.000;2023-07-09T12:32:14;4.65;;;4.43;;
35981;SDS011;22058;0.000;0.000;2023-07-09T12:34:41;4.93;;;4.63;;
35981;SDS011;22058;0.000;0.000;2023-07-09T12:37:09;4.55;;;4.25;;
35981;SDS011;22058;0.000;0.000;2023-07-09T12:39:38;4.07;;;3.88;;
35981;SDS011;22058;0.000;0.000;2023-07-09T12:42:05;4.35;;;4.15;;
35981;SDS011;22058;0.000;0.000;2023-07-09T12:44:33;4.18;;;3.92;;
35981;SDS011;22058;0.000;0.000;2023-07-09T12:47:01;4.60;;;4.40;;
35981;SDS011;22058;0.000;0.000;2023-07-09T12:49:28;4.30;;;4.03;;
35981;SDS011;22058;0.000;0.000;2023-07-09T12:51:55;4.22;;;3.92;;
35981;SDS011;22058;0.000;0.000;2023-07-09T12:54:21;4.95;;;4.65;;
35981;SDS011;22058;0.000;0.000;2023-07-09T12:56:54;4.93;;;4.63;;
35981;SDS011;22058;0.000;0.000;2023-07-09T12:59:28;4.32;;;4.03;;
35981;SDS011;22058;0.000;0.000;2023-07-09T13:04:27;3.92;;;3.72;;
35981;SDS011;22058;0.000;0.000;2023-07-09T13:06:53;4.68;;;4.38;;
35981;SDS011;22058;0.000;0.000;2023-07-09T13:09:24;4.50;;;4.20;;
35981;SDS011;22058;0.000;0.000;2023-07-09T13:11:51;5.38;;;5.07;;
35981;SDS011;22058;0.000;0.000;2023-07-09T13:14:18;4.20;;;4.00;;
35981;SDS011;22058;0.000;0.000;2023-07-09T13:16:45;5.13;;;4.82;;
35981;SDS011;22058;0.000;0.000;2023-07-09T13:19:11;4.90;;;4.60;;
35981;SDS011;22058;0.000;0.000;2023-07-09T13:21:37;5.22;;;4.82;;
35981;SDS011;22058;0.000;0.000;2023-07-09T13:24:07;3.95;;;3.75;;
35981;SDS011;22058;0.000;0.000;2023-07-09T13:26:37;4.30;;;4.05;;
35981;SDS011;22058;0.000;0.000;2023-07-09T13:29:07;4.75;;;4.45;;
35981;SDS011;22058;0.000;0.000;2023-07-09T13:31:36;5.15;;;4.82;;
35981;SDS011;22058;0.000;0.000;2023-07-09T13:34:04;5.40;;;5.10;;
35981;SDS011;22058;0.000;0.000;2023-07-09T13:36:34;4.60;;;4.32;;
35981;SDS011;22058;0.000;0.000;2023-07-09T13:39:00;4.70;;;4.40;;
35981;SDS011;22058;0.000;0.000;2023-07-09T13:41:26;5.00;;;4.70;;
35981;SDS011;22058;0.000;0.000;2023-07-09T13:43:52;4.95;;;4.65;;
35981;SDS011;22058;0.000;0.000;2023-07-09T13:46:18;4.38;;;4.07;;
35981;SDS011;22058;0.000;0.000;2023-07-09T13:48:45;4.43;;;4.13;;
35981;SDS011;22058;0.000;0.000;2023-07-09T13:51:16;4.68;;;4.45;;
35981;SDS011;22058;0.000;0.000;2023-07-09T13:53:43;5.43;;;5.13;;
35981;SDS011;22058;0.000;0.000;2023-07-09T13:56:09;5.53;;;5.22;;
35981;SDS011;22058;0.000;0.000;2023-07-09T13:58:35;4.85;;;4.40;;
35981;SDS011;22058;0.000;0.000;2023-07-09T14:01:13;4.80;;;4.55;;
35981;SDS011;22058;0.000;0.000;2023-07-09T14:03:39;4.53;;;4.32;;
35981;SDS011;22058;0.000;0.000;2023-07-09T14:06:08;4.05;;;3.78;;
35981;SDS011;22058;0.000;0.000;2023-07-09T14:08:34;5.22;;;4.82;;
35981;SDS011;22058;0.000;0.000;2023-07-09T14:11:00;4.18;;;2.97;;
35981;SDS011;22058;0.000;0.000;2023-07-09T14:13:26;12.05;;;4.32;;
35981;SDS011;22058;0.000;0.000;2023-07-09T14:15:53;4.30;;;3.17;;
35981;SDS011;22058;0.000;0.000;2023-07-09T14:18:21;7.25;;;3.67;;
35981;SDS011;22058;0.000;0.000;2023-07-09T14:20:49;4.80;;;3.67;;
35981;SDS011;22058;0.000;0.000;2023-07-09T14:23:16;8.25;;;4.10;;
35981;SDS011;22058;0.000;0.000;2023-07-09T14:25:43;5.68;;;5.28;;
35981;SDS011;22058;0.000;0.000;2023-07-09T14:28:14;4.10;;;3.80;;
35981;SDS011;22058;0.000;0.000;2023-07-09T14:30:41;3.50;;;3.30;;
35981;SDS011;22058;0.000;0.000;2023-07-09T14:33:15;4.47;;;4.07;;
35981;SDS011;22058;0.000;0.000;2023-07-09T14:35:42;4.93;;;4.63;;
35981;SDS011;22058;0.000;0.000;2023-07-09T14:38:29;5.00;;;4.72;;
35981;SDS011;22058;0.000;0.000;2023-07-09T14:40:55;5.10;;;4.80;;
35981;SDS011;22058;0.000;0.000;2023-07-09T14:43:22;5.47;;;5.18;;
35981;SDS011;22058;0.000;0.000;2023-07-09T14:45:48;6.05;;;5.72;;
35981;SDS011;22058;0.000;0.000;2023-07-09T14:48:15;5.57;;;5.28;;
35981;SDS011;22058;0.000;0.000;2023-07-09T14:50:42;6.10;;;5.70;;
35981;SDS011;22058;0.000;0.000;2023-07-09T14:53:15;5.18;;;4.88;;
35981;SDS011;22058;0.000;0.000;2023-07-09T14:55:42;5.07;;;4.78;;
35981;SDS011;22058;0.000;0.000;2023-07-09T14:58:17;5.50;;;5.10;;
35981;SDS011;22058;0.000;0.000;2023-07-09T15:00:43;6.88;;;6.47;;
35981;SDS011;22058;0.000;0.000;2023-07-09T15:03:17;5.90;;;5.45;;
35981;SDS011;22058;0.000;0.000;2023-07-09T15:05:44;5.80;;;5.50;;
35981;SDS011;22058;0.000;0.000;2023-07-09T15:08:14;5.95;;;5.40;;
35981;SDS011;22058;0.000;0.000;2023-07-09T15:10:41;6.30;;;5.20;;
35981;SDS011;22058;0.000;0.000;2023-07-09T15:13:13;6.55;;;6.05;;
35981;SDS011;22058;0.000;0.000;2023-07-09T15:15:41;5.03;;;4.72;;
35981;SDS011;22058;0.000;0.000;2023-07-09T15:18:14;6.63;;;5.82;;
35981;SDS011;22058;0.000;0.000;2023-07-09T15:20:42;6.95;;;6.40;;
35981;SDS011;22058;0.000;0.000;2023-07-09T15:23:09;5.75;;;5.45;;
35981;SDS011;22058;0.000;0.000;2023-07-09T15:25:36;6.63;;;6.13;;
35981;SDS011;22058;0.000;0.000;2023-07-09T15:28:03;6.45;;;6.05;;
35981;SDS011;22058;0.000;0.000;2023-07-09T15:30:29;6.30;;;5.90;;
35981;SDS011;22058;0.000;0.000;2023-07-09T15:32:57;5.72;;;5.35;;
35981;SDS011;22058;0.000;0.000;2023-07-09T15:35:23;5.88;;;5.57;;
35981;SDS011;22058;0.000;0.000;2023-07-09T15:37:51;6.38;;;5.97;;
35981;SDS011;22058;0.000;0.000;2023-07-09T15:40:25;5.90;;;5.50;;
35981;SDS011;22058;0.000;0.000;2023-07-09T15:42:56;5.97;;;5.68;;
35981;SDS011;22058;0.000;0.000;2023-07-09T15:45:22;4.82;;;4.50;;
35981;SDS011;22058;0.000;0.000;2023-07-09T15:47:49;6.25;;;5.85;;